createdAt,value
2019-04-03T00:00:00.679Z,11.40
2019-04-03T00:02:02.664Z,11.30
2019-04-03T00:04:06.081Z,11.30
2019-04-03T00:06:08.037Z,11.30
2019-04-03T00:08:09.736Z,11.30
2019-04-03T00:10:12.048Z,11.20
2019-04-03T00:12:13.970Z,11.30
2019-04-03T00:14:15.677Z,11.30
2019-04-03T00:16:17.388Z,11.30
2019-04-03T00:18:19.109Z,11.30
2019-04-03T00:20:20.921Z,11.30
2019-04-03T00:22:22.625Z,11.30
2019-04-03T00:24:24.321Z,11.10
2019-04-03T00:26:26.014Z,11.20
2019-04-03T00:28:27.777Z,11.20
2019-04-03T00:30:29.622Z,11.10
2019-04-03T00:32:31.319Z,11.00
2019-04-03T00:34:33.364Z,11.00
2019-04-03T00:36:35.068Z,11.10
2019-04-03T00:38:36.783Z,11.00
2019-04-03T00:40:38.918Z,11.00
2019-04-03T00:42:41.228Z,10.90
2019-04-03T00:44:43.096Z,10.90
2019-04-03T00:46:45.213Z,10.90
2019-04-03T00:48:46.901Z,10.90
2019-04-03T00:50:48.801Z,10.80
2019-04-03T00:52:50.611Z,10.80
2019-04-03T00:54:52.302Z,10.80
2019-04-03T00:56:56.125Z,10.80
2019-04-03T00:58:57.589Z,10.80
2019-04-03T01:00:59.445Z,10.80
2019-04-03T01:03:01.132Z,10.70
2019-04-03T01:05:03.475Z,10.70
2019-04-03T01:07:05.598Z,10.70
2019-04-03T01:09:07.613Z,10.60
2019-04-03T01:11:09.329Z,10.60
2019-04-03T01:13:11.253Z,10.60
2019-04-03T01:15:13.233Z,10.50
2019-04-03T01:17:14.938Z,10.50
2019-04-03T01:19:16.747Z,10.50
2019-04-03T01:21:18.436Z,10.40
2019-04-03T01:23:20.576Z,10.50
2019-04-03T01:25:22.271Z,10.50
2019-04-03T01:27:24.133Z,10.50
2019-04-03T01:29:26.074Z,10.50
2019-04-03T01:31:27.805Z,10.40
2019-04-03T01:33:29.496Z,10.40
2019-04-03T01:35:31.307Z,10.40
2019-04-03T01:37:33.045Z,10.40
2019-04-03T01:39:34.744Z,10.40
2019-04-03T01:41:36.449Z,10.40
2019-04-03T01:43:38.264Z,10.30
2019-04-03T01:45:39.974Z,10.40
2019-04-03T01:47:41.665Z,10.40
2019-04-03T01:49:43.365Z,10.40
2019-04-03T01:51:45.060Z,10.30
2019-04-03T01:53:46.964Z,10.30
2019-04-03T01:55:48.712Z,10.30
2019-04-03T01:57:50.611Z,10.30
2019-04-03T01:59:52.364Z,10.40
2019-04-03T02:01:54.064Z,10.40
2019-04-03T02:03:55.765Z,10.40
2019-04-03T02:05:57.470Z,10.30
2019-04-03T02:07:59.180Z,10.30
2019-04-03T02:10:00.968Z,10.40
2019-04-03T02:12:03.153Z,10.40
2019-04-03T02:14:04.874Z,10.40
2019-04-03T02:16:06.670Z,10.40
2019-04-03T02:18:08.385Z,10.40
2019-04-03T02:20:10.385Z,10.50
2019-04-03T02:22:12.217Z,10.50
2019-04-03T02:24:14.025Z,10.40
2019-04-03T02:26:15.725Z,10.40
2019-04-03T02:28:17.418Z,10.40
2019-04-03T02:30:19.371Z,10.30
2019-04-03T02:32:23.149Z,10.30
2019-04-03T02:34:24.854Z,10.20
2019-04-03T02:36:26.770Z,10.20
2019-04-03T02:38:28.780Z,10.20
2019-04-03T02:40:32.716Z,10.10
2019-04-03T02:42:34.586Z,10.10
2019-04-03T02:44:36.301Z,10.10
2019-04-03T02:46:38.415Z,10.10
2019-04-03T02:48:40.493Z,10.00
2019-04-03T02:50:46.543Z,10.10
2019-04-03T02:52:46.284Z,10.00
2019-04-03T02:54:48.811Z,10.00
2019-04-03T02:56:50.519Z,9.90
2019-04-03T02:58:53.958Z,10.00
2019-04-03T03:00:56.023Z,9.90
2019-04-03T03:02:57.731Z,9.90
2019-04-03T03:04:59.538Z,9.90
2019-04-03T03:07:04.451Z,9.90
2019-04-03T03:09:05.752Z,9.90
2019-04-03T03:11:07.781Z,9.90
2019-04-03T03:13:09.566Z,9.80
2019-04-03T03:15:12.557Z,9.80
2019-04-03T03:17:15.941Z,9.70
2019-04-03T03:19:18.615Z,9.70
2019-04-03T03:21:20.598Z,9.70
2019-04-03T03:23:24.097Z,9.60
2019-04-03T03:25:27.403Z,9.70
2019-04-03T03:27:29.331Z,9.70
2019-04-03T03:29:31.732Z,9.70
2019-04-03T03:31:59.131Z,9.80
2019-04-03T03:33:40.424Z,9.80
2019-04-03T03:35:45.519Z,9.80
2019-04-03T03:37:45.152Z,9.80
2019-04-03T03:39:47.578Z,9.80
2019-04-03T03:41:50.019Z,9.80
2019-04-03T03:43:52.905Z,9.80
2019-04-03T03:45:55.194Z,9.70
2019-04-03T03:47:59.281Z,9.70
2019-04-03T03:50:01.447Z,9.70
2019-04-03T03:52:05.392Z,9.60
2019-04-03T03:54:07.811Z,9.60
2019-04-03T03:56:10.018Z,9.60
2019-04-03T03:58:13.378Z,9.60
2019-04-03T04:00:16.061Z,9.60
2019-04-03T04:02:18.080Z,9.60
2019-04-03T04:04:19.974Z,9.60
2019-04-03T04:06:21.678Z,9.70
2019-04-03T04:08:23.478Z,9.60
2019-04-03T04:10:27.502Z,9.60
2019-04-03T04:12:29.706Z,9.70
2019-04-03T04:14:31.840Z,9.60
2019-04-03T04:16:37.113Z,9.60
2019-04-03T04:18:38.205Z,9.60
2019-04-03T04:20:40.451Z,9.70
2019-04-03T04:22:42.366Z,9.70
2019-04-03T04:24:44.062Z,9.70
2019-04-03T04:26:45.778Z,9.80
2019-04-03T04:28:48.240Z,9.80
2019-04-03T04:30:50.569Z,9.80
2019-04-03T04:32:52.285Z,9.80
2019-04-03T04:34:53.989Z,9.80
2019-04-03T04:36:56.115Z,9.80
2019-04-03T04:38:58.498Z,9.80
2019-04-03T04:41:01.868Z,9.70
2019-04-03T04:43:04.391Z,9.70
2019-04-03T04:45:07.685Z,9.80
2019-04-03T04:47:09.388Z,9.80
2019-04-03T04:49:11.113Z,9.80
2019-04-03T04:51:12.811Z,9.90
2019-04-03T04:53:14.524Z,9.90
2019-04-03T04:55:16.341Z,9.90
2019-04-03T04:57:18.049Z,9.90
2019-04-03T04:59:19.756Z,9.80
2019-04-03T05:01:21.458Z,9.80
2019-04-03T05:03:23.156Z,9.80
2019-04-03T05:05:26.804Z,9.60
2019-04-03T05:07:30.622Z,9.60
2019-04-03T05:09:34.359Z,9.60
2019-04-03T05:11:36.851Z,9.60
2019-04-03T05:13:39.511Z,9.60
2019-04-03T05:15:41.331Z,9.50
2019-04-03T05:17:43.110Z,9.50
2019-04-03T05:19:44.982Z,9.50
2019-04-03T05:21:46.816Z,9.60
2019-04-03T05:23:51.472Z,9.50
2019-04-03T05:25:53.471Z,9.50
2019-04-03T05:27:55.750Z,9.60
2019-04-03T05:29:57.532Z,9.50
2019-04-03T05:31:59.349Z,9.50
2019-04-03T05:34:01.260Z,9.50
2019-04-03T05:36:02.950Z,9.60
2019-04-03T05:38:04.698Z,9.70
2019-04-03T05:40:06.798Z,9.60
2019-04-03T05:42:08.489Z,9.50
2019-04-03T05:44:10.596Z,9.60
2019-04-03T05:46:12.473Z,9.60
2019-04-03T05:48:17.783Z,9.60
2019-04-03T05:50:17.989Z,9.60
2019-04-03T05:52:19.893Z,9.60
2019-04-03T05:54:21.897Z,9.60
2019-04-03T05:56:23.778Z,9.60
2019-04-03T05:58:25.633Z,9.70
2019-04-03T06:00:27.429Z,9.70
2019-04-03T06:02:29.137Z,9.80
2019-04-03T06:04:30.865Z,9.80
2019-04-03T06:06:32.577Z,9.80
2019-04-03T06:08:35.004Z,9.80
2019-04-03T06:10:37.653Z,9.80
2019-04-03T06:12:39.490Z,9.70
2019-04-03T06:14:41.299Z,9.80
2019-04-03T06:16:43.033Z,9.90
2019-04-03T06:18:47.371Z,9.90
2019-04-03T06:20:48.657Z,9.80
2019-04-03T06:22:50.658Z,9.90
2019-04-03T06:24:55.829Z,9.90
2019-04-03T06:26:56.485Z,9.90
2019-04-03T06:28:58.182Z,10.10
2019-04-03T06:31:00.103Z,10.20
2019-04-03T06:33:02.275Z,10.20
2019-04-03T06:35:04.172Z,10.20
2019-04-03T06:37:05.946Z,10.20
2019-04-03T06:39:08.024Z,10.20
2019-04-03T06:41:09.727Z,10.30
2019-04-03T06:43:11.429Z,10.20
2019-04-03T06:45:15.578Z,10.30
2019-04-03T06:47:17.163Z,10.30
2019-04-03T06:49:19.030Z,10.40
2019-04-03T06:51:20.734Z,10.30
2019-04-03T06:53:25.769Z,10.50
2019-04-03T06:55:26.158Z,10.40
2019-04-03T06:57:27.857Z,10.50
2019-04-03T06:59:29.545Z,10.50
2019-04-03T07:01:31.234Z,10.60
2019-04-03T07:03:34.316Z,10.70
2019-04-03T07:05:36.731Z,10.80
2019-04-03T07:07:38.525Z,10.80
2019-04-03T07:09:40.263Z,10.80
2019-04-03T07:11:43.250Z,10.80
2019-04-03T07:13:45.834Z,10.90
2019-04-03T07:15:47.941Z,11.00
2019-04-03T07:17:49.624Z,11.20
2019-04-03T07:19:51.312Z,11.10
2019-04-03T07:21:55.173Z,11.10
2019-04-03T07:23:56.657Z,11.10
2019-04-03T07:25:58.353Z,11.10
2019-04-03T07:28:00.409Z,11.00
2019-04-03T07:30:02.688Z,11.00
2019-04-03T07:32:04.517Z,11.00
2019-04-03T07:34:06.776Z,11.10
2019-04-03T07:36:08.786Z,10.90
2019-04-03T07:38:12.388Z,11.00
2019-04-03T07:40:14.569Z,11.20
2019-04-03T07:42:16.596Z,11.10
2019-04-03T07:44:18.295Z,11.20
2019-04-03T07:46:19.989Z,11.30
2019-04-03T07:48:21.863Z,11.20
2019-04-03T07:50:23.724Z,11.30
2019-04-03T07:52:25.432Z,11.30
2019-04-03T07:54:27.341Z,11.40
2019-04-03T07:56:29.144Z,11.30
2019-04-03T07:58:32.083Z,11.30
2019-04-03T08:00:34.434Z,11.20
2019-04-03T08:02:36.401Z,11.30
2019-04-03T08:04:38.105Z,11.30
2019-04-03T08:06:39.814Z,11.40
2019-04-03T08:08:41.712Z,11.40
2019-04-03T08:10:43.649Z,11.40
2019-04-03T08:12:45.490Z,11.40
2019-04-03T08:14:47.285Z,11.40
2019-04-03T08:16:48.995Z,11.40
2019-04-03T08:18:51.748Z,11.60
2019-04-03T08:20:56.283Z,11.50
2019-04-03T08:22:58.532Z,11.50
2019-04-03T08:25:00.752Z,11.60
2019-04-03T08:27:03.176Z,11.60
2019-04-03T08:29:05.081Z,11.60
2019-04-03T08:31:07.050Z,11.50
2019-04-03T08:33:15.969Z,11.60
2019-04-03T08:35:21.714Z,11.70
2019-04-03T08:37:28.421Z,11.60
2019-04-03T08:39:21.392Z,11.60
2019-04-03T08:41:24.188Z,11.60
2019-04-03T08:43:27.235Z,11.60
2019-04-03T08:45:29.016Z,11.70
2019-04-03T08:47:30.908Z,11.80
2019-04-03T08:49:32.721Z,11.70
2019-04-03T08:51:34.977Z,11.90
2019-04-03T08:53:39.311Z,11.90
2019-04-03T08:55:40.868Z,12.00
2019-04-03T08:57:45.353Z,12.00
2019-04-03T08:59:47.298Z,12.00
2019-04-03T09:01:49.168Z,12.00
2019-04-03T09:03:50.898Z,11.90
2019-04-03T09:05:55.671Z,11.90
2019-04-03T09:07:56.892Z,12.00
2019-04-03T09:10:00.976Z,12.00
2019-04-03T09:12:02.408Z,12.00
2019-04-03T09:14:04.648Z,12.00
2019-04-03T09:16:07.056Z,12.10
2019-04-03T09:18:10.145Z,12.10
2019-04-03T09:20:13.502Z,12.20
2019-04-03T09:22:15.951Z,12.20
2019-04-03T09:24:17.649Z,12.30
2019-04-03T09:26:19.526Z,12.20
2019-04-03T09:28:21.684Z,12.30
2019-04-03T09:30:23.798Z,12.30
2019-04-03T09:32:25.741Z,12.30
2019-04-03T09:34:29.726Z,12.30
2019-04-03T09:36:31.099Z,12.00
2019-04-03T09:38:35.301Z,12.00
2019-04-03T09:40:36.402Z,12.10
2019-04-03T09:42:38.348Z,12.00
2019-04-03T09:44:40.063Z,11.90
2019-04-03T09:46:44.470Z,12.00
2019-04-03T09:48:46.087Z,12.00
2019-04-03T09:50:47.793Z,11.70
2019-04-03T09:52:50.692Z,11.60
2019-04-03T09:54:52.854Z,11.50
2019-04-03T09:57:01.650Z,11.20
2019-04-03T09:58:58.190Z,11.10
2019-04-03T10:01:00.726Z,11.00
2019-04-03T10:03:05.364Z,11.00
2019-04-03T10:05:06.906Z,11.00
2019-04-03T10:07:08.590Z,11.10
2019-04-03T10:09:12.111Z,11.00
2019-04-03T10:11:15.528Z,10.80
2019-04-03T10:13:17.966Z,10.80
2019-04-03T10:15:20.324Z,10.80
2019-04-03T10:17:22.057Z,10.80
2019-04-03T10:19:23.845Z,10.80
2019-04-03T10:21:25.545Z,10.70
2019-04-03T10:23:29.109Z,10.60
2019-04-03T10:25:31.048Z,10.70
2019-04-03T10:27:32.760Z,10.60
2019-04-03T10:29:34.685Z,10.50
2019-04-03T10:31:36.489Z,10.50
2019-04-03T10:33:38.507Z,10.60
2019-04-03T10:35:40.502Z,10.50
2019-04-03T10:37:45.271Z,10.60
2019-04-03T10:39:46.329Z,10.70
2019-04-03T10:41:48.394Z,10.70
2019-04-03T10:43:50.199Z,10.80
2019-04-03T10:45:51.892Z,10.80
2019-04-03T10:47:55.705Z,10.70
2019-04-03T10:49:57.450Z,10.70
2019-04-03T10:51:59.470Z,10.70
2019-04-03T10:54:01.874Z,10.80
2019-04-03T10:56:04.425Z,10.70
2019-04-03T10:58:07.139Z,10.70
2019-04-03T11:00:11.037Z,10.70
2019-04-03T11:02:13.064Z,10.70
2019-04-03T11:04:14.829Z,10.80
2019-04-03T11:06:16.943Z,10.80
2019-04-03T11:08:19.070Z,11.00
2019-04-03T11:10:23.320Z,11.00
2019-04-03T11:12:24.796Z,11.00
2019-04-03T11:14:26.582Z,10.90
2019-04-03T11:16:28.642Z,10.90
2019-04-03T11:23:36.562Z,11.00
2019-04-03T11:25:26.942Z,11.00
2019-04-03T11:27:40.661Z,10.80
2019-04-03T11:29:32.245Z,10.80
2019-04-03T11:31:40.974Z,10.80
2019-04-03T11:33:38.147Z,10.80
2019-04-03T11:35:39.849Z,10.80
2019-04-03T11:37:41.570Z,10.90
2019-04-03T11:39:44.093Z,10.90
2019-04-03T11:41:47.804Z,10.80
2019-04-03T11:43:49.897Z,10.90
2019-04-03T11:45:51.772Z,10.80
2019-04-03T11:47:53.748Z,10.90
2019-04-03T11:49:55.603Z,10.90
2019-04-03T11:51:58.947Z,10.90
2019-04-03T11:54:01.776Z,11.00
2019-04-03T11:56:04.271Z,11.10
2019-04-03T11:58:06.234Z,11.20
2019-04-03T12:00:13.696Z,11.20
2019-04-03T12:02:15.501Z,11.10
2019-04-03T12:04:17.449Z,11.10
2019-04-03T12:06:20.219Z,11.00
2019-04-03T12:08:22.945Z,11.10
2019-04-03T12:10:26.074Z,11.10
2019-04-03T12:12:28.370Z,11.20
2019-04-03T12:14:30.144Z,11.10
2019-04-03T12:16:31.892Z,11.00
2019-04-03T12:18:34.317Z,10.90
2019-04-03T12:20:36.433Z,10.90
2019-04-03T12:22:38.551Z,10.90
2019-04-03T12:24:40.505Z,11.00
2019-04-03T12:26:43.590Z,10.90
2019-04-03T12:28:48.324Z,10.80
2019-04-03T12:30:49.753Z,10.90
2019-04-03T12:32:51.593Z,10.90
2019-04-03T12:34:53.313Z,11.00
2019-04-03T12:36:54.997Z,11.10
2019-04-03T12:38:57.215Z,11.20
2019-04-03T12:40:59.281Z,10.90
2019-04-03T12:43:00.985Z,10.80
2019-04-03T12:45:05.307Z,10.90
2019-04-03T12:47:12.144Z,10.90
2019-04-03T12:49:11.398Z,10.90
2019-04-03T12:51:13.376Z,10.80
2019-04-03T12:53:16.469Z,11.00
2019-04-03T12:55:19.847Z,11.00
2019-04-03T12:57:21.669Z,11.10
2019-04-03T12:59:23.739Z,11.00
2019-04-03T13:01:25.686Z,11.10
2019-04-03T13:03:27.789Z,11.30
2019-04-03T13:05:29.752Z,11.50
2019-04-03T13:07:31.602Z,11.30
2019-04-03T13:10:15.534Z,11.40
2019-04-03T13:12:25.884Z,11.40
2019-04-03T13:14:33.511Z,11.40
2019-04-03T13:16:34.097Z,11.40
2019-04-03T13:18:36.209Z,11.60
2019-04-03T13:20:38.195Z,11.70
2019-04-03T13:22:42.080Z,11.70
2019-04-03T13:24:43.821Z,12.00
2019-04-03T13:26:45.876Z,12.40
2019-04-03T13:28:47.971Z,12.70
2019-04-03T13:30:49.852Z,13.40
2019-04-03T13:32:58.365Z,13.80
2019-04-03T13:34:55.344Z,14.30
2019-04-03T13:36:57.369Z,14.50
2019-04-03T13:39:01.242Z,14.50
2019-04-03T13:41:05.179Z,14.80
2019-04-03T13:43:07.212Z,14.90
2019-04-03T13:45:09.463Z,14.60
2019-04-03T13:47:11.577Z,14.00
2019-04-03T13:49:15.175Z,13.90
2019-04-03T13:51:17.140Z,13.60
2019-04-03T13:53:20.522Z,13.30
2019-04-03T13:55:22.750Z,13.00
2019-04-03T13:57:24.821Z,12.70
2019-04-03T13:59:27.200Z,12.30
2019-04-03T14:01:29.052Z,12.40
2019-04-03T14:03:31.030Z,12.20
2019-04-03T14:05:33.650Z,12.30
2019-04-03T14:07:36.283Z,12.10
2019-04-03T14:09:38.312Z,11.90
2019-04-03T14:11:40.063Z,11.70
2019-04-03T14:13:43.623Z,11.80
2019-04-03T14:15:45.631Z,11.80
2019-04-03T14:17:55.452Z,11.80
2019-04-03T14:19:52.697Z,11.90
2019-04-03T14:21:54.752Z,12.10
2019-04-03T14:23:56.836Z,12.00
2019-04-03T14:26:05.668Z,12.00
2019-04-03T14:28:03.425Z,11.80
2019-04-03T14:30:09.776Z,11.80
2019-04-03T14:32:13.577Z,11.80
2019-04-03T14:34:14.471Z,11.80
2019-04-03T14:36:18.489Z,11.90
2019-04-03T14:38:20.038Z,11.90
2019-04-03T14:40:22.792Z,11.90
2019-04-03T14:42:26.406Z,11.90
2019-04-03T14:44:28.322Z,11.90
2019-04-03T14:46:30.317Z,11.80
2019-04-03T14:48:32.116Z,12.00
2019-04-03T14:50:36.505Z,11.80
2019-04-03T14:52:37.653Z,11.80
2019-04-03T14:54:39.348Z,11.80
2019-04-03T14:56:41.217Z,11.70
2019-04-03T14:58:43.073Z,11.60
2019-04-03T15:00:46.758Z,11.60
2019-04-03T15:02:49.138Z,11.70
2019-04-03T15:04:51.221Z,11.70
2019-04-03T15:07:02.062Z,11.60
2019-04-03T15:08:56.879Z,11.70
2019-04-03T15:10:58.722Z,11.90
2019-04-03T15:13:00.572Z,12.00
2019-04-03T15:15:03.660Z,12.10
2019-04-03T15:17:05.912Z,12.00
2019-04-03T15:19:07.765Z,12.00
2019-04-03T15:21:09.932Z,11.80
2019-04-03T15:23:12.123Z,11.80
2019-04-03T15:25:15.443Z,12.10
2019-04-03T15:27:18.055Z,12.20
2019-04-03T15:29:20.306Z,12.20
2019-04-03T15:31:24.378Z,12.30
2019-04-03T15:33:26.158Z,12.40
2019-04-03T15:35:28.066Z,12.50
2019-04-03T15:37:29.825Z,12.70
2019-04-03T15:39:32.298Z,12.60
2019-04-03T15:41:34.922Z,12.40
2019-04-03T15:43:37.141Z,12.60
2019-04-03T15:45:39.989Z,12.70
2019-04-03T15:47:45.372Z,12.90
2019-04-03T15:49:45.496Z,13.10
2019-04-03T15:51:47.185Z,13.20
2019-04-03T15:53:48.933Z,13.40
2019-04-03T15:55:50.643Z,13.40
2019-04-03T15:57:53.256Z,13.50
2019-04-03T15:59:55.749Z,13.40
2019-04-03T16:01:57.554Z,13.10
2019-04-03T16:04:00.057Z,13.20
2019-04-03T16:06:03.940Z,13.40
2019-04-03T16:08:05.932Z,13.50
2019-04-03T16:10:07.747Z,13.60
2019-04-03T16:12:11.601Z,13.40
2019-04-03T16:14:13.699Z,13.30
2019-04-03T16:16:15.519Z,13.30
2019-04-03T16:18:20.015Z,13.30
2019-04-03T16:20:21.369Z,13.20
2019-04-03T16:22:23.888Z,13.10
2019-04-03T16:24:25.865Z,13.00
2019-04-03T16:26:28.147Z,13.00
2019-04-03T16:28:33.368Z,13.00
2019-04-03T16:30:34.160Z,13.00
2019-04-03T16:32:36.609Z,13.00
2019-04-03T16:34:40.811Z,13.00
2019-04-03T16:36:42.456Z,13.20
2019-04-03T16:38:44.696Z,13.20
2019-04-03T16:40:47.338Z,13.20
2019-04-03T16:42:52.384Z,13.40
2019-04-03T16:44:53.237Z,13.50
2019-04-03T16:46:54.992Z,13.30
2019-04-03T16:48:56.996Z,13.10
2019-04-03T16:51:01.587Z,13.10
2019-04-03T16:53:03.827Z,13.10
2019-04-03T16:55:07.101Z,13.10
2019-04-03T16:57:09.144Z,13.10
2019-04-03T16:59:10.890Z,12.90
2019-04-03T17:01:14.334Z,12.90
2019-04-03T17:03:16.342Z,12.90
2019-04-03T17:05:18.504Z,12.90
2019-04-03T17:07:21.767Z,12.90
2019-04-03T17:09:24.078Z,13.10
2019-04-03T17:11:26.244Z,13.00
2019-04-03T17:13:28.069Z,13.00
2019-04-03T17:15:30.336Z,13.10
2019-04-03T17:17:32.733Z,13.10
2019-04-03T17:19:34.961Z,12.90
2019-04-03T17:21:38.768Z,13.00
2019-04-03T17:23:43.321Z,12.90
2019-04-03T17:25:49.055Z,12.90
2019-04-03T17:27:55.027Z,12.80
2019-04-03T17:29:52.316Z,12.70
2019-04-03T17:31:57.507Z,12.60
2019-04-03T17:33:58.101Z,12.50
2019-04-03T17:36:00.056Z,12.60
2019-04-03T17:41:07.001Z,12.40
2019-04-03T17:43:09.106Z,12.30
2019-04-03T17:45:16.228Z,12.40
2019-04-03T17:47:23.481Z,12.30
2019-04-03T17:49:30.587Z,12.30
2019-04-03T17:51:34.467Z,12.20
2019-04-03T17:53:36.745Z,12.30
2019-04-03T17:55:41.279Z,12.20
2019-04-03T17:57:44.853Z,12.10
2019-04-03T17:59:48.868Z,12.10
2019-04-03T18:01:50.617Z,12.00
2019-04-03T18:03:54.293Z,12.00
2019-04-03T18:05:57.000Z,11.90
2019-04-03T18:07:59.772Z,11.80
2019-04-03T18:10:02.046Z,11.80
2019-04-03T18:12:03.941Z,11.70
2019-04-03T18:14:05.665Z,11.70
2019-04-03T18:16:07.493Z,11.70
2019-04-03T18:18:09.449Z,11.70
2019-04-03T18:20:13.441Z,11.70
2019-04-03T18:22:15.502Z,11.70
2019-04-03T18:24:17.228Z,11.70
2019-04-03T18:26:19.057Z,11.70
2019-04-03T18:28:21.170Z,11.70
2019-04-03T18:30:33.614Z,11.60
2019-04-03T18:32:35.587Z,11.70
2019-04-03T18:34:39.645Z,11.70
2019-04-03T18:36:47.654Z,11.70
2019-04-03T18:38:49.612Z,11.70
2019-04-03T18:40:51.390Z,11.70
2019-04-03T18:42:53.473Z,11.70
2019-04-03T18:44:55.942Z,11.60
2019-04-03T18:47:02.200Z,11.60
2019-04-03T18:49:04.234Z,11.40
2019-04-03T18:51:06.578Z,11.40
2019-04-03T18:53:11.640Z,11.40
2019-04-03T18:55:14.613Z,11.30
2019-04-03T18:57:17.103Z,11.20
2019-04-03T18:59:19.330Z,11.30
2019-04-03T19:01:21.324Z,11.30
2019-04-03T19:03:23.202Z,11.40
2019-04-03T19:05:25.021Z,11.40
2019-04-03T19:07:26.770Z,11.40
2019-04-03T19:09:28.828Z,11.40
2019-04-03T19:11:30.644Z,11.30
2019-04-03T19:13:32.430Z,11.30
2019-04-03T19:15:34.495Z,11.30
2019-04-03T19:17:36.206Z,11.20
2019-04-03T19:19:37.935Z,11.20
2019-04-03T19:21:39.736Z,11.20
2019-04-03T19:23:49.730Z,11.20
2019-04-03T19:25:45.479Z,11.20
2019-04-03T19:27:49.664Z,11.10
2019-04-03T19:29:50.829Z,11.10
2019-04-03T19:31:52.639Z,11.10
2019-04-03T19:33:54.443Z,11.10
2019-04-03T19:35:58.396Z,11.10
2019-04-03T19:37:59.940Z,11.00
2019-04-03T19:40:01.917Z,11.00
2019-04-03T19:42:04.126Z,11.00
2019-04-03T19:44:05.868Z,11.00
2019-04-03T19:46:07.820Z,11.00
2019-04-03T19:48:09.677Z,11.00
2019-04-03T19:50:12.206Z,11.00
2019-04-03T19:52:13.986Z,10.90
2019-04-03T19:54:16.751Z,10.80
2019-04-03T19:56:19.013Z,10.80
2019-04-03T19:58:20.749Z,10.80
2019-04-03T20:00:22.567Z,10.90
2019-04-03T20:02:24.525Z,10.80
2019-04-03T20:04:26.383Z,10.90
2019-04-03T20:06:28.089Z,10.90
2019-04-03T20:08:30.540Z,10.80
2019-04-03T20:10:33.807Z,10.70
2019-04-03T20:12:37.754Z,10.70
2019-04-03T20:14:42.212Z,10.60
2019-04-03T20:16:43.397Z,10.60
2019-04-03T20:18:45.109Z,10.50
2019-04-03T20:20:46.877Z,10.50
2019-04-03T20:22:48.916Z,10.50
2019-04-03T20:24:59.980Z,10.50
2019-04-03T20:26:54.237Z,10.50
2019-04-03T20:28:57.387Z,10.50
2019-04-03T20:30:59.312Z,10.50
2019-04-03T20:33:01.028Z,10.50
2019-04-03T20:35:03.773Z,10.50
2019-04-03T20:37:07.671Z,10.50
2019-04-03T20:39:09.666Z,10.40
2019-04-03T20:41:11.384Z,10.40
2019-04-03T20:43:13.110Z,10.30
2019-04-03T20:45:14.828Z,10.40
2019-04-03T20:47:16.590Z,10.40
2019-04-03T20:49:18.577Z,10.40
2019-04-03T20:51:20.505Z,10.30
2019-04-03T20:53:22.238Z,10.40
2019-04-03T20:55:25.418Z,10.30
2019-04-03T20:57:27.386Z,10.30
2019-04-03T20:59:30.210Z,10.30
2019-04-03T21:01:32.146Z,10.20
2019-04-03T21:03:33.871Z,10.20
2019-04-03T21:05:35.592Z,10.10
2019-04-03T21:07:37.400Z,10.10
2019-04-03T21:09:39.136Z,9.90
2019-04-03T21:11:40.854Z,10.00
2019-04-03T21:13:42.709Z,10.00
2019-04-03T21:15:45.587Z,10.10
2019-04-03T21:17:49.738Z,10.00
2019-04-03T21:19:52.223Z,10.10
2019-04-03T21:21:54.565Z,10.10
2019-04-03T21:23:56.376Z,10.10
2019-04-03T21:25:58.355Z,10.00
2019-04-03T21:28:00.065Z,9.90
2019-04-03T21:30:01.981Z,9.80
2019-04-03T21:32:03.709Z,9.80
2019-04-03T21:34:05.519Z,9.70
2019-04-03T21:36:07.656Z,9.80
2019-04-03T21:38:10.954Z,9.80
2019-04-03T21:40:15.270Z,9.80
2019-04-03T21:42:16.924Z,9.90
2019-04-03T21:44:18.728Z,9.80
2019-04-03T21:46:20.457Z,9.80
2019-04-03T21:48:24.700Z,9.80
2019-04-03T21:50:26.410Z,9.80
2019-04-03T21:52:28.132Z,9.70
2019-04-03T21:54:29.865Z,9.80
2019-04-03T21:56:32.692Z,9.70
2019-04-03T21:58:35.086Z,9.60
2019-04-03T22:01:14.826Z,9.50
2019-04-03T22:03:19.408Z,9.40
2019-04-03T22:05:20.675Z,9.40
2019-04-03T22:07:22.413Z,9.40
2019-04-03T22:09:24.102Z,9.40
2019-04-03T22:11:25.801Z,9.50
2019-04-03T22:13:27.628Z,9.50
2019-04-03T22:15:29.354Z,9.50
2019-04-03T22:17:31.073Z,9.50
2019-04-03T22:19:32.772Z,9.50
2019-04-03T22:21:34.880Z,9.40
2019-04-03T22:23:36.599Z,9.30
2019-04-03T22:25:39.508Z,9.30
2019-04-03T22:27:42.709Z,9.40
2019-04-03T22:29:45.144Z,9.40
2019-04-03T22:31:47.148Z,9.40
2019-04-03T22:33:49.030Z,9.40
2019-04-03T22:35:50.829Z,9.40
2019-04-03T22:37:52.542Z,9.40
2019-04-03T22:39:54.253Z,9.40
2019-04-03T22:41:55.992Z,9.40
2019-04-03T22:43:57.705Z,9.40
2019-04-03T22:45:59.851Z,9.40
2019-04-03T22:48:01.578Z,9.40
2019-04-03T22:50:05.564Z,9.40
2019-04-03T22:52:08.895Z,9.40
2019-04-03T22:54:12.777Z,9.40
2019-04-03T22:56:16.853Z,9.50
2019-04-03T22:58:19.004Z,9.50
2019-04-03T23:00:25.489Z,9.50
2019-04-03T23:02:26.476Z,9.50
2019-04-03T23:04:28.462Z,9.50
2019-04-03T23:06:30.284Z,9.60
2019-04-03T23:08:32.200Z,9.60
2019-04-03T23:10:34.295Z,9.50
2019-04-03T23:12:36.083Z,9.50
2019-04-03T23:14:57.559Z,9.50
2019-04-03T23:16:59.270Z,9.40
2019-04-03T23:19:00.993Z,9.50
2019-04-03T23:21:02.717Z,9.60
2019-04-03T23:23:04.408Z,9.60
2019-04-03T23:25:06.708Z,9.60
2019-04-03T23:27:08.419Z,9.50
2019-04-03T23:29:10.468Z,9.50
2019-04-03T23:31:13.073Z,9.40
2019-04-03T23:33:16.937Z,9.40
2019-04-03T23:35:20.564Z,9.50
2019-04-03T23:37:24.644Z,9.50
2019-04-03T23:39:27.935Z,9.60
2019-04-03T23:41:30.120Z,9.50
2019-04-03T23:43:31.864Z,9.60
2019-04-03T23:45:33.688Z,9.70
2019-04-03T23:47:35.502Z,9.60
2019-04-03T23:49:37.314Z,9.70
2019-04-03T23:51:39.012Z,9.80
2019-04-03T23:53:40.738Z,9.90
2019-04-03T23:55:42.634Z,10.20
2019-04-03T23:57:44.358Z,10.30
2019-04-03T23:59:46.060Z,10.20
